Time;durP1;ratioP1;P1;durP2;ratioP2;P2;SDS_P1;SDS_P2;PMS_P1;PMS_P2;Temp;Humidity;BMP_temperature;BMP_pressure;BME280_temperature;BME280_humidity;BME280_pressure;Samples;Min_cycle;Max_cycle;Signal;HPM_P1;HPM_P2
2021/03/13 00:01:49;;;;;;;15.70;3.33;;;6.90;87.70;;;;;;5023409;28;20172;-90
2021/03/13 00:04:15;;;;;;;13.77;3.23;;;6.90;87.70;;;;;;5024146;28;20021;-91
2021/03/13 00:06:40;;;;;;;19.57;4.00;;;6.90;87.90;;;;;;5022435;28;20120;-89
2021/03/13 00:09:06;;;;;;;15.33;3.37;;;6.80;87.70;;;;;;5022889;28;20541;-91
2021/03/13 00:11:31;;;;;;;11.17;3.23;;;6.90;87.80;;;;;;5021072;28;20032;-88
2021/03/13 00:13:57;;;;;;;12.67;3.10;;;6.80;87.70;;;;;;5022029;28;20364;-89
2021/03/13 00:16:22;;;;;;;13.23;3.30;;;6.90;87.60;;;;;;5021060;28;20033;-89
2021/03/13 00:18:48;;;;;;;16.17;3.03;;;6.80;87.70;;;;;;5021547;28;20522;-89
2021/03/13 00:21:14;;;;;;;15.77;3.80;;;6.80;87.70;;;;;;5022671;28;20053;-89
2021/03/13 00:23:39;;;;;;;14.83;3.17;;;6.80;87.70;;;;;;5022204;28;20171;-89
2021/03/13 00:26:05;;;;;;;14.07;3.77;;;6.80;87.80;;;;;;5022728;28;20032;-89
2021/03/13 00:28:31;;;;;;;15.83;3.60;;;6.80;87.70;;;;;;5022450;28;20461;-89
2021/03/13 00:30:56;;;;;;;18.23;3.53;;;6.80;87.60;;;;;;5025448;28;20089;-89
2021/03/13 00:33:26;;;;;;;15.07;3.90;;;6.80;87.60;;;;;;5022488;28;20471;-89
2021/03/13 00:35:52;;;;;;;14.23;3.17;;;6.90;87.40;;;;;;5025445;28;20018;-89
2021/03/13 00:38:19;;;;;;;15.27;4.33;;;6.90;87.10;;;;;;5023345;28;20035;-89
2021/03/13 00:40:49;;;;;;;14.87;3.50;;;6.80;87.30;;;;;;5026132;28;20039;-89
2021/03/13 00:43:16;;;;;;;13.23;3.60;;;6.80;87.30;;;;;;5021872;28;20076;-89
2021/03/13 00:45:43;;;;;;;14.30;3.37;;;6.80;87.40;;;;;;5025367;28;20021;-89
2021/03/13 00:48:10;;;;;;;14.30;3.20;;;6.80;87.50;;;;;;5022378;28;20363;-89
2021/03/13 00:50:38;;;;;;;15.33;3.70;;;6.80;87.30;;;;;;5056398;28;20033;-91
2021/03/13 00:53:04;;;;;;;15.90;3.60;;;6.80;87.30;;;;;;5021884;28;20120;-90
2021/03/13 00:55:31;;;;;;;11.83;3.27;;;6.80;87.40;;;;;;5022466;28;20056;-90
2021/03/13 00:57:56;;;;;;;12.03;3.20;;;6.90;87.50;;;;;;5024142;28;20120;-90
2021/03/13 01:00:25;;;;;;;15.93;3.17;;;6.80;87.30;;;;;;5022431;28;20064;-90
2021/03/13 01:02:51;;;;;;;13.40;4.10;;;6.80;87.20;;;;;;5019513;28;20053;-91
2021/03/13 01:05:17;;;;;;;12.00;3.20;;;6.80;87.40;;;;;;5019063;28;20025;-91
2021/03/13 01:07:43;;;;;;;12.60;3.20;;;6.80;87.30;;;;;;5019820;28;20116;-91
2021/03/13 01:10:12;;;;;;;14.63;3.33;;;6.90;87.10;;;;;;5020044;28;20025;-91
2021/03/13 01:12:38;;;;;;;15.20;3.58;;;6.90;87.30;;;;;;5019212;28;20089;-90
2021/03/13 01:15:09;;;;;;;13.47;3.50;;;6.90;87.00;;;;;;5021340;28;20030;-91
2021/03/13 01:17:34;;;;;;;16.77;5.10;;;6.90;87.10;;;;;;5018169;28;20504;-89
2021/03/13 01:20:00;;;;;;;14.07;3.87;;;7.00;87.00;;;;;;5018023;28;20021;-90
2021/03/13 01:22:25;;;;;;;13.90;4.17;;;6.90;87.00;;;;;;5018214;28;20029;-91
2021/03/13 01:24:51;;;;;;;13.33;3.30;;;7.00;87.00;;;;;;5027289;28;20021;-90
2021/03/13 01:27:16;;;;;;;12.20;3.40;;;7.00;86.70;;;;;;5027675;28;20139;-89
2021/03/13 01:29:42;;;;;;;13.70;3.43;;;7.00;86.80;;;;;;5027607;28;20079;-91
2021/03/13 01:32:07;;;;;;;14.70;3.53;;;7.00;87.10;;;;;;5024491;28;20033;-90
2021/03/13 01:34:33;;;;;;;15.07;3.90;;;7.00;87.00;;;;;;5017724;28;20497;-90
2021/03/13 01:36:59;;;;;;;15.97;4.20;;;7.00;86.90;;;;;;5017761;28;20029;-89
2021/03/13 01:39:26;;;;;;;13.83;3.90;;;7.00;86.90;;;;;;5036376;28;20021;-89
2021/03/13 01:41:51;;;;;;;12.20;4.20;;;7.10;86.50;;;;;;5018272;28;20390;-89
2021/03/13 01:44:17;;;;;;;13.33;3.60;;;7.00;86.70;;;;;;5018735;28;20119;-91
2021/03/13 01:46:43;;;;;;;12.87;4.17;;;7.00;86.80;;;;;;5051406;28;20057;-90
2021/03/13 01:49:17;;;;;;;10.57;3.47;;;7.00;86.80;;;;;;5018011;28;20030;-91
2021/03/13 01:51:42;;;;;;;13.73;3.40;;;7.00;86.80;;;;;;5018079;28;20033;-91
2021/03/13 01:54:08;;;;;;;13.00;3.60;;;7.00;87.00;;;;;;5011959;28;20440;-90
2021/03/13 01:56:36;;;;;;;15.63;3.53;;;6.90;87.00;;;;;;4997930;28;20022;-90
2021/03/13 01:59:02;;;;;;;14.50;3.60;;;6.90;87.10;;;;;;5015458;28;20033;-89
2021/03/13 02:01:27;;;;;;;15.43;3.50;;;6.90;87.20;;;;;;4998844;28;20033;-90
2021/03/13 02:03:53;;;;;;;17.97;3.60;;;7.00;87.00;;;;;;4998595;28;20065;-90
2021/03/13 02:06:19;;;;;;;12.17;3.20;;;7.00;87.00;;;;;;4998123;28;20072;-91
2021/03/13 02:09:07;;;;;;;10.73;3.00;;;7.00;86.90;;;;;;4997837;28;20034;-89
2021/03/13 02:11:54;;;;;;;13.83;3.90;;;7.00;86.80;;;;;;4998308;28;20033;-90
2021/03/13 02:14:33;;;;;;;19.30;3.93;;;7.00;86.90;;;;;;4998633;28;20093;-91
2021/03/13 02:17:20;;;;;;;15.68;3.83;;;6.90;87.20;;;;;;5015231;28;20507;-90
2021/03/13 02:20:04;;;;;;;16.47;3.30;;;7.00;86.80;;;;;;5016427;28;20029;-90
2021/03/13 02:22:35;;;;;;;10.93;3.10;;;7.00;86.90;;;;;;5014757;28;20022;-91
2021/03/13 02:25:04;;;;;;;18.87;3.70;;;7.00;86.60;;;;;;4998536;28;20041;-90
2021/03/13 02:27:32;;;;;;;13.48;3.55;;;7.00;86.80;;;;;;4998460;28;20073;-91
2021/03/13 02:30:01;;;;;;;13.73;3.53;;;7.00;86.80;;;;;;4996753;28;20072;-90
2021/03/13 02:32:42;;;;;;;14.52;4.22;;;7.00;87.00;;;;;;4997469;28;20026;-90
2021/03/13 02:35:14;;;;;;;17.23;3.73;;;7.00;86.80;;;;;;4996782;28;20028;-90
2021/03/13 02:37:56;;;;;;;14.67;4.07;;;7.00;86.80;;;;;;4997307;28;20033;-91
2021/03/13 02:40:25;;;;;;;13.90;4.23;;;7.00;86.80;;;;;;4996320;28;20030;-90
2021/03/13 02:43:02;;;;;;;15.43;4.57;;;7.00;86.90;;;;;;4996708;28;20030;-91
2021/03/13 02:45:31;;;;;;;18.50;4.97;;;7.00;87.00;;;;;;4997084;28;20538;-91
2021/03/13 02:48:00;;;;;;;17.87;4.90;;;7.00;87.50;;;;;;4996770;28;20061;-91
2021/03/13 02:50:27;;;;;;;18.80;4.53;;;7.00;87.00;;;;;;4996554;28;20025;-90
2021/03/13 02:52:55;;;;;;;17.30;4.87;;;7.00;87.10;;;;;;4996346;28;20036;-90
2021/03/13 02:55:21;;;;;;;19.80;4.90;;;7.00;87.10;;;;;;5011718;28;20029;-92
2021/03/13 02:57:49;;;;;;;13.47;4.37;;;7.10;86.80;;;;;;5016393;28;20479;-91
2021/03/13 03:00:17;;;;;;;16.60;4.40;;;7.10;86.40;;;;;;5016569;28;20032;-91
2021/03/13 03:02:48;;;;;;;16.30;4.77;;;7.00;86.60;;;;;;5016239;28;20377;-90
2021/03/13 03:05:17;;;;;;;17.40;5.87;;;7.00;86.70;;;;;;5023868;28;20079;-89
2021/03/13 03:07:44;;;;;;;16.20;5.30;;;7.10;86.70;;;;;;5054484;28;20029;-88
2021/03/13 03:10:12;;;;;;;20.03;5.50;;;7.00;87.60;;;;;;5054466;28;20112;-89
2021/03/13 03:12:39;;;;;;;14.73;5.40;;;7.10;86.80;;;;;;5036395;28;20029;-89
2021/03/13 03:15:06;;;;;;;14.70;4.70;;;7.10;86.70;;;;;;5036245;28;20025;-90
2021/03/13 03:17:33;;;;;;;17.40;4.90;;;7.10;86.70;;;;;;5036552;28;20071;-88
2021/03/13 03:20:00;;;;;;;15.37;5.03;;;7.10;86.60;;;;;;5035849;28;20076;-90
2021/03/13 03:22:26;;;;;;;14.30;4.73;;;7.10;86.80;;;;;;5040017;28;20440;-89
2021/03/13 03:24:53;;;;;;;15.40;4.67;;;7.10;87.40;;;;;;5059019;28;20108;-89
2021/03/13 03:27:19;;;;;;;15.37;5.57;;;7.10;86.80;;;;;;5041726;28;20115;-91
2021/03/13 03:29:45;;;;;;;12.20;5.30;;;7.10;86.50;;;;;;5041141;28;20533;-89
2021/03/13 03:32:11;;;;;;;16.37;4.93;;;7.20;86.80;;;;;;5059062;28;20029;-90
2021/03/13 03:34:36;;;;;;;16.80;5.80;;;7.20;86.40;;;;;;5041467;28;20029;-90
2021/03/13 03:37:05;;;;;;;16.50;5.47;;;7.20;86.50;;;;;;5041203;28;20025;-92
2021/03/13 03:39:31;;;;;;;16.02;6.20;;;7.30;86.70;;;;;;5039941;28;20387;-91
2021/03/13 03:41:59;;;;;;;14.53;5.73;;;7.20;86.60;;;;;;5040938;28;20047;-91
2021/03/13 03:44:27;;;;;;;16.40;6.05;;;7.20;86.70;;;;;;5040377;28;20025;-90
2021/03/13 03:46:58;;;;;;;15.80;5.73;;;7.20;87.20;;;;;;5056745;28;20136;-90
2021/03/13 03:49:24;;;;;;;12.73;5.53;;;7.10;87.70;;;;;;5057973;28;20032;-91
2021/03/13 03:51:51;;;;;;;13.27;5.23;;;7.10;87.60;;;;;;5040915;28;20025;-91
2021/03/13 03:54:18;;;;;;;13.90;5.50;;;7.10;87.70;;;;;;5043451;28;20023;-91
2021/03/13 03:56:45;;;;;;;12.87;5.30;;;7.00;87.90;;;;;;5049928;28;20088;-89
2021/03/13 03:59:18;;;;;;;11.17;4.40;;;7.00;88.80;;;;;;5051272;28;20025;-89
2021/03/13 04:01:50;;;;;;;10.10;4.30;;;6.90;88.50;;;;;;5072414;28;20033;-88
2021/03/13 04:04:21;;;;;;;11.77;4.20;;;6.90;89.30;;;;;;5071438;28;20017;-89
2021/03/13 04:06:48;;;;;;;11.60;3.87;;;6.90;89.00;;;;;;5047099;28;20086;-91
2021/03/13 04:09:17;;;;;;;11.63;3.97;;;6.90;89.70;;;;;;5049609;28;20036;-89
2021/03/13 04:11:44;;;;;;;14.13;4.20;;;6.80;89.50;;;;;;5050416;28;20487;-88
2021/03/13 04:14:10;;;;;;;10.07;3.23;;;6.80;90.20;;;;;;5039628;28;20052;-90
2021/03/13 04:16:36;;;;;;;9.70;2.93;;;6.90;90.10;;;;;;5039685;28;20020;-88
2021/03/13 04:19:03;;;;;;;8.93;3.30;;;6.80;90.20;;;;;;5040040;28;20103;-89
2021/03/13 04:21:30;;;;;;;9.70;3.47;;;6.80;90.10;;;;;;5058216;28;20055;-90
2021/03/13 04:23:56;;;;;;;10.30;3.30;;;6.70;90.20;;;;;;5044941;28;20102;-91
2021/03/13 04:26:22;;;;;;;9.77;3.17;;;6.70;90.30;;;;;;5045033;28;20021;-90
2021/03/13 04:28:49;;;;;;;6.00;2.80;;;6.70;90.70;;;;;;5041768;28;20021;-90
2021/03/13 04:31:17;;;;;;;7.63;3.23;;;6.70;90.50;;;;;;5041882;28;20021;-91
2021/03/13 04:33:43;;;;;;;8.23;2.90;;;6.60;90.50;;;;;;5041762;28;20266;-90
2021/03/13 04:36:13;;;;;;;7.53;2.90;;;6.60;90.80;;;;;;5040893;28;20021;-91
2021/03/13 04:38:39;;;;;;;9.07;3.37;;;6.60;90.80;;;;;;5038321;28;20462;-91
2021/03/13 04:41:06;;;;;;;9.33;3.50;;;6.70;91.00;;;;;;5038203;28;20155;-90
2021/03/13 04:43:32;;;;;;;9.17;3.77;;;6.60;90.80;;;;;;5038770;28;20029;-91
2021/03/13 04:45:59;;;;;;;8.33;3.30;;;6.60;91.00;;;;;;5040247;28;20037;-89
2021/03/13 04:48:31;;;;;;;6.20;3.47;;;6.60;91.00;;;;;;5038360;28;20059;-91
2021/03/13 04:51:01;;;;;;;8.90;3.70;;;6.60;90.90;;;;;;5037902;28;20071;-90
2021/03/13 04:53:28;;;;;;;7.53;4.00;;;6.50;90.80;;;;;;5038301;28;20445;-89
2021/03/13 04:55:54;;;;;;;6.30;3.50;;;6.50;91.30;;;;;;5018110;28;20125;-89
2021/03/13 04:58:20;;;;;;;11.27;3.80;;;6.50;90.90;;;;;;5017551;28;20052;-90
2021/03/13 05:00:46;;;;;;;8.87;3.43;;;6.50;90.90;;;;;;5017868;28;20386;-90
2021/03/13 05:03:13;;;;;;;8.40;3.30;;;6.50;91.00;;;;;;5018049;28;20025;-90
2021/03/13 05:05:38;;;;;;;8.40;3.60;;;6.60;91.20;;;;;;5017803;28;20029;-90
2021/03/13 05:08:04;;;;;;;5.17;3.10;;;6.50;91.00;;;;;;5018088;28;20026;-89
2021/03/13 05:10:30;;;;;;;6.80;3.20;;;6.50;91.20;;;;;;5017879;28;20029;-90
2021/03/13 05:12:55;;;;;;;6.73;3.00;;;6.50;91.30;;;;;;5017626;28;20021;-90
2021/03/13 05:15:23;;;;;;;6.27;2.80;;;6.50;91.30;;;;;;5017762;28;20021;-89
2021/03/13 05:17:48;;;;;;;7.43;3.10;;;6.50;91.20;;;;;;5015086;28;20045;-90
2021/03/13 05:20:14;;;;;;;8.27;3.83;;;6.50;91.20;;;;;;5014939;28;20084;-91
2021/03/13 05:22:40;;;;;;;8.20;3.03;;;6.40;91.10;;;;;;5015241;28;20038;-90
2021/03/13 05:25:07;;;;;;;8.47;3.00;;;6.50;91.70;;;;;;5015134;28;20124;-89
2021/03/13 05:27:38;;;;;;;6.60;3.20;;;6.50;91.20;;;;;;5014977;28;20411;-90
2021/03/13 05:30:06;;;;;;;7.87;3.00;;;6.40;91.60;;;;;;5015532;28;20391;-89
2021/03/13 05:32:31;;;;;;;10.10;3.03;;;6.40;91.40;;;;;;5015077;28;20029;-90
2021/03/13 05:34:57;;;;;;;6.23;2.90;;;6.40;91.40;;;;;;5016144;28;20030;-90
2021/03/13 05:37:22;;;;;;;6.27;2.80;;;6.40;91.80;;;;;;5014094;28;20030;-91
2021/03/13 05:39:48;;;;;;;7.37;2.70;;;6.40;91.40;;;;;;5015141;28;20030;-89
2021/03/13 05:42:14;;;;;;;6.03;2.60;;;6.40;91.50;;;;;;5015479;28;20435;-90
2021/03/13 05:44:40;;;;;;;7.60;2.90;;;6.50;91.50;;;;;;5020077;28;20022;-89
2021/03/13 05:47:07;;;;;;;7.27;2.80;;;6.50;91.40;;;;;;5026173;28;20053;-89
2021/03/13 05:49:36;;;;;;;4.97;2.93;;;6.50;91.40;;;;;;5028051;28;20121;-89
2021/03/13 05:52:05;;;;;;;4.32;2.60;;;6.50;91.80;;;;;;5027504;28;20026;-89
2021/03/13 05:54:31;;;;;;;4.73;2.27;;;6.50;91.60;;;;;;5016565;28;20027;-88
2021/03/13 05:56:58;;;;;;;5.43;2.57;;;6.50;91.70;;;;;;5034181;28;20036;-87
2021/03/13 05:59:25;;;;;;;5.10;2.30;;;6.50;91.70;;;;;;5043919;28;20029;-89
2021/03/13 06:01:52;;;;;;;5.90;2.77;;;6.50;91.60;;;;;;5037389;28;20082;-89
2021/03/13 06:04:18;;;;;;;5.20;2.40;;;6.40;92.20;;;;;;5043025;28;20025;-90
2021/03/13 06:06:44;;;;;;;5.47;2.20;;;6.50;92.00;;;;;;5043811;28;20055;-89
2021/03/13 06:09:12;;;;;;;6.10;2.40;;;6.50;91.80;;;;;;5042317;28;20033;-89
2021/03/13 06:11:38;;;;;;;4.67;2.00;;;6.40;91.80;;;;;;5043174;28;20022;-88
2021/03/13 06:14:03;;;;;;;2.67;1.90;;;6.50;91.70;;;;;;5039113;28;20030;-90
2021/03/13 06:16:33;;;;;;;3.83;1.90;;;6.50;91.90;;;;;;5040810;28;20027;-91
2021/03/13 06:18:58;;;;;;;6.93;2.08;;;6.50;91.80;;;;;;5036140;28;20045;-90
2021/03/13 06:21:33;;;;;;;5.63;2.10;;;6.50;91.70;;;;;;5035478;28;20545;-90
2021/03/13 06:24:02;;;;;;;4.70;2.07;;;6.60;92.00;;;;;;5035358;28;20025;-90
2021/03/13 06:26:48;;;;;;;5.97;2.20;;;6.50;91.90;;;;;;5034923;28;20115;-91
2021/03/13 06:29:14;;;;;;;4.33;1.80;;;6.50;91.90;;;;;;5034613;28;20032;-90
2021/03/13 06:31:40;;;;;;;3.30;1.70;;;6.50;92.00;;;;;;5034917;28;20025;-90
2021/03/13 06:34:06;;;;;;;3.23;1.70;;;6.60;91.90;;;;;;5034324;28;20056;-91
2021/03/13 06:36:32;;;;;;;3.53;1.90;;;6.60;92.00;;;;;;5034568;28;20025;-90
2021/03/13 06:38:57;;;;;;;2.10;1.50;;;6.60;92.10;;;;;;5036021;28;20035;-90
2021/03/13 06:41:24;;;;;;;4.40;1.67;;;6.60;91.90;;;;;;5038441;28;20060;-90
2021/03/13 06:43:52;;;;;;;5.23;1.60;;;6.60;91.80;;;;;;5037598;28;20033;-90
2021/03/13 06:46:27;;;;;;;2.77;1.50;;;6.60;92.00;;;;;;5038684;28;20561;-90
2021/03/13 06:48:55;;;;;;;5.07;1.73;;;6.70;92.00;;;;;;5039474;28;20053;-90
2021/03/13 06:51:28;;;;;;;3.97;1.50;;;6.60;92.40;;;;;;5042223;28;20036;-91
2021/03/13 06:54:14;;;;;;;1.60;1.13;;;6.70;92.00;;;;;;5050311;28;20033;-89
2021/03/13 06:56:59;;;;;;;1.53;1.10;;;6.70;92.10;;;;;;5041160;28;20030;-89
2021/03/13 06:59:29;;;;;;;4.53;1.37;;;6.70;92.40;;;;;;5042177;28;20463;-90
2021/03/13 07:02:12;;;;;;;3.13;1.40;;;6.80;92.00;;;;;;5041330;28;20048;-90
2021/03/13 07:04:42;;;;;;;5.00;1.30;;;6.80;92.10;;;;;;5046946;28;20523;-89
2021/03/13 07:07:10;;;;;;;2.97;1.30;;;6.80;92.00;;;;;;5037184;28;20061;-91
2021/03/13 07:09:52;;;;;;;3.37;1.30;;;6.80;92.10;;;;;;5039546;28;20049;-92
2021/03/13 07:12:39;;;;;;;2.87;1.60;;;6.80;92.20;;;;;;5041525;28;20030;-91
2021/03/13 07:15:31;;;;;;;4.77;1.47;;;6.80;92.40;;;;;;5033462;28;20036;-91
2021/03/13 07:18:00;;;;;;;3.00;1.30;;;6.90;92.10;;;;;;5030926;28;20056;-91
2021/03/13 07:20:28;;;;;;;4.55;1.55;;;6.90;92.40;;;;;;5034793;28;20022;-91
2021/03/13 07:22:56;;;;;;;2.80;1.45;;;6.90;92.10;;;;;;5034138;28;20511;-90
2021/03/13 07:25:25;;;;;;;1.53;1.40;;;6.90;92.20;;;;;;5033927;28;20021;-91
2021/03/13 07:28:02;;;;;;;3.38;1.40;;;6.90;92.30;;;;;;5034477;28;20033;-90
2021/03/13 07:30:29;;;;;;;2.47;1.30;;;6.90;92.50;;;;;;5035270;28;20475;-91
2021/03/13 07:32:59;;;;;;;4.50;1.60;;;7.00;92.40;;;;;;5037186;28;20060;-90
2021/03/13 07:35:28;;;;;;;2.23;1.40;;;6.90;92.30;;;;;;5035341;28;20025;-90
2021/03/13 07:37:55;;;;;;;2.83;1.48;;;6.90;92.20;;;;;;5035405;28;20053;-91
2021/03/13 07:40:22;;;;;;;2.93;1.37;;;6.90;92.50;;;;;;5033725;28;20037;-90
2021/03/13 07:42:48;;;;;;;6.20;1.50;;;7.00;92.40;;;;;;5033471;28;20107;-91
2021/03/13 07:45:16;;;;;;;2.90;1.40;;;7.10;92.50;;;;;;5033749;28;20029;-91
2021/03/13 07:47:42;;;;;;;2.87;1.10;;;7.10;92.50;;;;;;5035964;28;20487;-91
2021/03/13 07:50:10;;;;;;;1.03;0.93;;;7.10;92.70;;;;;;5033433;28;20036;-90
2021/03/13 07:52:38;;;;;;;4.03;1.40;;;7.20;92.60;;;;;;5032900;28;20402;-90
2021/03/13 07:55:09;;;;;;;5.80;1.30;;;7.20;92.40;;;;;;5035204;28;20026;-90
2021/03/13 07:57:36;;;;;;;3.80;1.50;;;7.20;92.50;;;;;;5032813;28;20113;-90
2021/03/13 08:00:03;;;;;;;1.60;1.17;;;7.20;92.50;;;;;;5032771;28;20028;-90
2021/03/13 08:02:31;;;;;;;4.20;1.30;;;7.20;92.80;;;;;;5032363;28;20080;-91
2021/03/13 08:05:07;;;;;;;1.90;1.23;;;7.20;92.80;;;;;;5016685;28;20021;-90
2021/03/13 08:07:58;;;;;;;4.47;1.30;;;7.30;93.10;;;;;;5035012;28;20095;-91
2021/03/13 08:10:50;;;;;;;3.47;1.57;;;7.20;92.90;;;;;;5037356;28;20104;-90
2021/03/13 08:13:28;;;;;;;0.80;0.70;;;7.20;92.70;;;;;;5033213;28;20042;-90
2021/03/13 08:16:11;;;;;;;2.70;1.20;;;7.40;92.50;;;;;;5037899;28;20474;-90
2021/03/13 08:18:42;;;;;;;3.00;1.40;;;7.30;92.30;;;;;;5040097;28;20502;-90
2021/03/13 08:21:20;;;;;;;2.43;1.30;;;7.30;92.30;;;;;;5042380;28;20032;-90
2021/03/13 08:23:54;;;;;;;5.27;1.50;;;7.30;91.90;;;;;;5036608;28;20386;-90
2021/03/13 08:26:21;;;;;;;3.23;1.13;;;7.30;91.60;;;;;;5036229;28;20029;-90
2021/03/13 08:28:47;;;;;;;4.63;1.70;;;7.30;91.50;;;;;;5035908;28;20025;-89
2021/03/13 08:31:22;;;;;;;4.20;1.40;;;7.30;91.20;;;;;;5036001;28;20376;-90
2021/03/13 08:33:48;;;;;;;2.47;1.00;;;7.20;91.40;;;;;;5036356;28;20112;-90
2021/03/13 08:36:18;;;;;;;2.23;0.93;;;7.20;90.90;;;;;;5035864;28;20033;-90
2021/03/13 08:38:54;;;;;;;3.97;1.20;;;7.20;90.80;;;;;;5019149;28;20176;-89
2021/03/13 08:41:42;;;;;;;2.73;1.00;;;7.20;90.90;;;;;;5016848;28;20438;-91
2021/03/13 08:44:29;;;;;;;4.23;1.00;;;7.10;90.70;;;;;;5019207;28;20026;-90
2021/03/13 08:47:12;;;;;;;4.97;1.30;;;7.10;90.70;;;;;;5016048;28;20052;-89
2021/03/13 08:49:40;;;;;;;4.07;1.10;;;7.10;90.70;;;;;;5016226;28;20045;-90
2021/03/13 08:52:09;;;;;;;3.97;1.40;;;7.10;90.70;;;;;;5017877;28;20503;-89
2021/03/13 08:54:41;;;;;;;3.72;0.90;;;7.10;90.60;;;;;;5006755;28;20027;-89
2021/03/13 08:57:11;;;;;;;2.70;1.20;;;7.10;90.50;;;;;;4980596;28;20023;-90
2021/03/13 08:59:39;;;;;;;3.10;1.10;;;7.10;90.50;;;;;;4981302;28;20023;-89
2021/03/13 09:02:07;;;;;;;4.53;1.13;;;7.10;90.30;;;;;;4981701;28;20026;-91
2021/03/13 09:04:35;;;;;;;6.35;1.88;;;7.10;90.30;;;;;;4980650;28;20515;-88
2021/03/13 09:07:01;;;;;;;5.70;1.63;;;7.20;90.10;;;;;;4980312;28;20030;-90
2021/03/13 09:09:32;;;;;;;5.77;1.50;;;7.20;90.20;;;;;;4982462;28;20050;-89
2021/03/13 09:12:05;;;;;;;8.53;1.90;;;7.20;89.80;;;;;;4979879;28;20459;-90
2021/03/13 09:14:31;;;;;;;4.60;1.63;;;7.30;89.40;;;;;;4980301;28;20053;-90
2021/03/13 09:16:57;;;;;;;8.00;1.37;;;7.30;89.30;;;;;;4980914;28;20053;-90
2021/03/13 09:19:27;;;;;;;6.40;1.30;;;7.30;89.40;;;;;;4979391;28;20034;-90
2021/03/13 09:21:55;;;;;;;9.73;1.87;;;7.30;89.30;;;;;;4980012;28;20030;-90
2021/03/13 09:24:27;;;;;;;6.80;1.50;;;7.30;89.20;;;;;;4979644;28;20026;-91
2021/03/13 09:26:57;;;;;;;6.27;1.37;;;7.40;89.30;;;;;;4998045;28;20053;-90
2021/03/13 09:29:40;;;;;;;7.77;1.40;;;7.40;88.60;;;;;;4981078;28;20037;-90
2021/03/13 09:32:11;;;;;;;10.03;1.70;;;7.50;88.20;;;;;;4980151;28;20031;-90
2021/03/13 09:34:39;;;;;;;9.67;1.60;;;7.50;88.20;;;;;;4980911;28;20547;-90
2021/03/13 09:37:22;;;;;;;7.77;1.47;;;7.60;87.90;;;;;;4999694;28;20049;-90
2021/03/13 09:39:51;;;;;;;8.20;2.07;;;7.70;87.00;;;;;;4986803;28;20027;-89
2021/03/13 09:42:21;;;;;;;6.72;1.65;;;7.80;85.60;;;;;;5001176;28;20026;-91
2021/03/13 09:44:52;;;;;;;10.80;2.10;;;7.80;85.70;;;;;;5006010;28;20037;-90
2021/03/13 09:47:54;;;;;;;7.43;1.87;;;7.70;86.10;;;;;;4984180;28;20052;-91
2021/03/13 09:50:28;;;;;;;11.40;1.97;;;7.80;85.50;;;;;;4965753;28;20031;-89
2021/03/13 09:52:54;;;;;;;19.97;3.10;;;7.90;85.80;;;;;;4997988;28;20531;-89
2021/03/13 09:55:22;;;;;;;14.50;2.00;;;7.90;85.40;;;;;;5006560;28;20022;-90
2021/03/13 09:57:50;;;;;;;8.40;1.60;;;7.90;85.40;;;;;;5048869;28;20033;-89
2021/03/13 10:00:21;;;;;;;10.27;1.70;;;7.90;85.20;;;;;;5014729;28;20026;-90
2021/03/13 10:02:51;;;;;;;12.10;2.13;;;7.90;85.20;;;;;;5014971;28;20091;-90
2021/03/13 10:05:19;;;;;;;12.90;2.63;;;7.90;85.20;;;;;;5014747;28;20026;-91
2021/03/13 10:07:49;;;;;;;13.63;2.37;;;8.10;84.20;;;;;;5016419;28;20042;-91
2021/03/13 10:10:16;;;;;;;11.38;1.88;;;8.20;83.90;;;;;;5017536;28;20022;-90
2021/03/13 10:12:45;;;;;;;12.50;2.07;;;8.20;84.00;;;;;;5017931;28;20453;-90
2021/03/13 10:15:20;;;;;;;12.10;2.40;;;8.30;83.10;;;;;;5016311;28;20113;-90
2021/03/13 10:18:06;;;;;;;9.13;1.70;;;8.40;83.80;;;;;;5017655;28;20046;-91
2021/03/13 10:20:37;;;;;;;11.80;1.90;;;8.50;83.40;;;;;;5017715;28;20029;-91
2021/03/13 10:23:09;;;;;;;11.40;1.97;;;8.60;80.90;;;;;;5016206;28;20034;-90
2021/03/13 10:25:36;;;;;;;12.17;2.17;;;8.50;82.10;;;;;;5014420;28;20025;-91
2021/03/13 10:28:14;;;;;;;13.50;2.67;;;8.50;83.50;;;;;;5014637;28;20120;-90
2021/03/13 10:30:45;;;;;;;11.25;2.25;;;8.50;83.00;;;;;;5048656;28;20049;-92
2021/03/13 10:33:12;;;;;;;11.13;1.60;;;8.60;82.90;;;;;;5002079;28;20030;-91
2021/03/13 10:35:38;;;;;;;15.07;2.27;;;8.60;82.90;;;;;;5014739;28;20064;-91
2021/03/13 10:38:15;;;;;;;10.77;1.90;;;8.70;82.60;;;;;;5014796;28;20372;-91
2021/03/13 10:40:43;;;;;;;8.03;1.60;;;8.70;82.00;;;;;;5049184;28;20365;-89
2021/03/13 10:43:24;;;;;;;13.37;2.30;;;8.90;79.70;;;;;;5015868;28;20125;-89
2021/03/13 10:45:58;;;;;;;14.87;2.47;;;8.80;80.50;;;;;;5017258;28;20033;-90
2021/03/13 10:48:38;;;;;;;10.53;2.47;;;8.80;80.50;;;;;;5014730;28;20029;-91
2021/03/13 10:51:04;;;;;;;13.97;2.10;;;8.80;80.70;;;;;;4998030;28;20057;-91
2021/03/13 10:53:36;;;;;;;11.70;2.13;;;8.80;80.80;;;;;;5014287;28;20026;-90
2021/03/13 10:56:10;;;;;;;11.13;2.20;;;8.90;80.00;;;;;;4996740;28;20027;-90
2021/03/13 10:58:57;;;;;;;11.33;2.00;;;8.90;80.20;;;;;;4996924;28;20022;-90
2021/03/13 11:01:23;;;;;;;14.43;2.40;;;8.90;78.80;;;;;;4995883;28;20060;-90
2021/03/13 11:03:50;;;;;;;16.03;2.23;;;8.90;78.50;;;;;;4995094;28;20096;-89
2021/03/13 11:06:31;;;;;;;12.57;2.00;;;8.90;77.80;;;;;;4994790;28;20503;-91
2021/03/13 11:08:58;;;;;;;14.90;2.43;;;8.90;77.10;;;;;;4997698;28;20061;-92
2021/03/13 11:11:25;;;;;;;11.13;2.07;;;8.80;77.10;;;;;;4979047;28;20102;-90
2021/03/13 11:13:51;;;;;;;7.30;1.53;;;8.90;76.90;;;;;;4995670;28;20022;-89
2021/03/13 11:16:16;;;;;;;16.30;3.50;;;8.90;76.60;;;;;;4980531;28;20161;-90
2021/03/13 11:18:42;;;;;;;12.03;2.30;;;9.00;76.00;;;;;;4996878;28;20427;-91
2021/03/13 11:21:08;;;;;;;10.27;1.73;;;9.00;75.80;;;;;;4993754;28;20034;-89
2021/03/13 11:23:34;;;;;;;14.80;2.00;;;9.00;74.70;;;;;;4994343;28;20112;-93
2021/03/13 11:26:00;;;;;;;14.23;2.27;;;9.00;75.50;;;;;;4989141;28;20425;-91
2021/03/13 11:28:25;;;;;;;16.47;2.23;;;9.10;76.40;;;;;;4978126;28;20027;-91
2021/03/13 11:30:51;;;;;;;13.90;2.80;;;9.20;75.80;;;;;;4995235;28;20113;-91
2021/03/13 11:33:17;;;;;;;14.20;2.80;;;9.20;74.90;;;;;;4995380;28;20488;-90
2021/03/13 11:35:44;;;;;;;12.97;2.27;;;9.20;75.60;;;;;;4994578;28;20027;-92
2021/03/13 11:38:09;;;;;;;8.60;2.00;;;9.20;76.10;;;;;;4979075;28;20038;-89
2021/03/13 11:40:35;;;;;;;14.03;2.60;;;9.30;75.00;;;;;;4978891;28;20061;-91
2021/03/13 11:43:01;;;;;;;15.47;2.80;;;9.30;74.70;;;;;;4997017;28;20387;-91
2021/03/13 11:45:28;;;;;;;9.73;2.33;;;9.30;75.70;;;;;;4997715;28;20081;-91
2021/03/13 11:47:57;;;;;;;11.23;2.10;;;9.30;76.00;;;;;;4998046;28;20065;-91
2021/03/13 11:50:25;;;;;;;10.07;2.05;;;9.30;76.00;;;;;;4981665;28;20228;-90
2021/03/13 11:52:54;;;;;;;10.37;2.17;;;9.30;75.80;;;;;;4997373;28;20030;-90
2021/03/13 11:55:21;;;;;;;11.23;2.13;;;9.30;75.00;;;;;;5012016;28;20406;-90
2021/03/13 11:57:46;;;;;;;12.67;2.00;;;9.30;76.00;;;;;;5016066;28;20394;-90
2021/03/13 12:00:12;;;;;;;12.60;2.23;;;9.20;76.10;;;;;;5017336;28;20018;-90
2021/03/13 12:02:38;;;;;;;13.33;3.03;;;9.20;76.30;;;;;;5016503;28;20415;-91
2021/03/13 12:05:06;;;;;;;13.40;2.10;;;9.10;76.90;;;;;;5016371;28;20104;-90
2021/03/13 12:07:31;;;;;;;12.13;2.50;;;9.00;77.20;;;;;;5000158;28;20395;-90
2021/03/13 12:09:57;;;;;;;14.60;2.57;;;8.90;77.50;;;;;;5018297;28;20022;-90
2021/03/13 12:12:22;;;;;;;11.53;1.90;;;8.70;79.00;;;;;;5017499;28;20121;-90
2021/03/13 12:14:49;;;;;;;15.30;3.17;;;8.60;78.00;;;;;;5017430;28;20022;-92
2021/03/13 12:17:14;;;;;;;15.47;2.73;;;8.60;78.70;;;;;;5017024;28;20057;-91
2021/03/13 12:19:41;;;;;;;14.17;3.43;;;8.50;79.00;;;;;;5018020;28;20065;-88
2021/03/13 12:22:07;;;;;;;14.50;2.30;;;8.40;79.50;;;;;;5016217;28;20061;-90
2021/03/13 12:24:33;;;;;;;12.43;2.13;;;8.40;79.30;;;;;;5016794;28;20543;-89
2021/03/13 12:26:58;;;;;;;10.80;2.20;;;8.40;79.50;;;;;;5016652;28;20494;-90
2021/03/13 12:29:24;;;;;;;14.03;2.77;;;8.20;80.10;;;;;;5016746;28;20026;-91
2021/03/13 12:31:50;;;;;;;13.40;2.20;;;8.20;80.70;;;;;;5016657;28;20025;-90
2021/03/13 12:34:15;;;;;;;18.20;4.00;;;8.20;80.90;;;;;;5015854;28;20037;-90
2021/03/13 12:36:41;;;;;;;15.33;2.53;;;8.10;81.20;;;;;;5018159;28;20022;-90
2021/03/13 12:39:06;;;;;;;12.77;2.20;;;8.10;81.20;;;;;;5018762;28;20021;-91
2021/03/13 12:41:32;;;;;;;17.57;3.27;;;8.20;81.70;;;;;;5020337;28;20102;-90
2021/03/13 12:43:58;;;;;;;17.17;2.53;;;8.20;82.10;;;;;;5019709;28;20080;-90
2021/03/13 12:46:24;;;;;;;16.30;2.83;;;8.30;82.10;;;;;;5018420;28;20034;-90
2021/03/13 12:48:50;;;;;;;13.80;2.70;;;8.50;82.20;;;;;;5018883;28;20502;-91
2021/03/13 12:51:17;;;;;;;15.07;3.03;;;8.60;81.70;;;;;;5019122;28;20025;-91
2021/03/13 12:53:44;;;;;;;14.40;3.27;;;8.70;81.70;;;;;;5015759;28;20022;-90
2021/03/13 12:56:10;;;;;;;13.33;2.40;;;8.90;80.80;;;;;;4997586;28;20023;-91
2021/03/13 12:58:36;;;;;;;12.87;2.50;;;9.00;80.50;;;;;;4997598;28;20035;-91
2021/03/13 13:01:03;;;;;;;13.87;2.67;;;9.00;80.20;;;;;;4997376;28;20061;-93